createdAt,value
2018-03-23T00:00:39.927Z,3.60
2018-03-23T00:03:07.432Z,3.50
2018-03-23T00:05:34.927Z,3.50
2018-03-23T00:08:02.443Z,3.50
2018-03-23T00:10:29.919Z,3.50
2018-03-23T00:12:57.421Z,3.50
2018-03-23T00:15:25.664Z,3.60
2018-03-23T00:17:53.176Z,3.50
2018-03-23T00:20:21.429Z,3.60
2018-03-23T00:22:48.933Z,3.60
2018-03-23T00:25:17.184Z,3.70
2018-03-23T00:27:44.692Z,3.60
2018-03-23T00:30:12.948Z,3.60
2018-03-23T00:32:40.438Z,3.50
2018-03-23T00:35:07.915Z,3.60
2018-03-23T00:37:35.411Z,3.60
2018-03-23T00:40:02.892Z,3.60
2018-03-23T00:42:30.411Z,3.50
2018-03-23T00:44:57.887Z,3.60
2018-03-23T00:47:25.367Z,3.50
2018-03-23T00:49:53.639Z,3.50
2018-03-23T00:52:21.125Z,3.50
2018-03-23T00:54:49.392Z,3.40
2018-03-23T00:57:16.873Z,3.40
2018-03-23T00:59:44.376Z,3.40
2018-03-23T01:02:11.854Z,3.50
2018-03-23T01:04:39.360Z,3.50
2018-03-23T01:07:06.852Z,3.50
2018-03-23T01:09:34.368Z,3.50
2018-03-23T01:12:01.861Z,3.50
2018-03-23T01:14:29.375Z,3.50
2018-03-23T01:16:56.851Z,3.60
2018-03-23T01:19:25.127Z,3.60
2018-03-23T01:21:52.620Z,3.60
2018-03-23T01:24:20.123Z,3.60
2018-03-23T01:26:47.608Z,3.60
2018-03-23T01:29:15.083Z,3.60
2018-03-23T01:31:42.579Z,3.60
2018-03-23T01:34:10.059Z,3.60
2018-03-23T01:36:38.324Z,3.60
2018-03-23T01:39:05.811Z,3.50
2018-03-23T01:41:34.071Z,3.60
2018-03-23T01:44:01.551Z,3.50
2018-03-23T01:46:29.047Z,3.50
2018-03-23T01:48:57.310Z,3.50
2018-03-23T01:51:24.816Z,3.50
2018-03-23T01:53:53.065Z,3.50
2018-03-23T01:56:20.565Z,3.40
2018-03-23T01:58:48.919Z,3.50
2018-03-23T02:01:16.413Z,3.50
2018-03-23T02:03:43.900Z,3.60
2018-03-23T02:06:12.172Z,3.60
2018-03-23T02:08:40.438Z,3.60
2018-03-23T02:11:07.944Z,3.60
2018-03-23T02:13:36.204Z,3.50
2018-03-23T02:16:03.725Z,3.50
2018-03-23T02:18:31.216Z,3.60
2018-03-23T02:20:58.713Z,3.60
2018-03-23T02:23:26.242Z,3.60
2018-03-23T02:25:53.737Z,3.60
2018-03-23T02:28:21.240Z,3.60
2018-03-23T02:30:49.502Z,3.60
2018-03-23T02:33:17.022Z,3.60
2018-03-23T02:35:44.518Z,3.60
2018-03-23T02:38:12.034Z,3.70
2018-03-23T02:40:39.531Z,3.70
2018-03-23T02:43:07.042Z,3.60
2018-03-23T02:45:34.539Z,3.60
2018-03-23T02:48:02.054Z,3.60
2018-03-23T02:50:29.543Z,3.60
2018-03-23T02:52:57.058Z,3.60
2018-03-23T02:55:24.566Z,3.60
2018-03-23T02:57:52.085Z,3.70
2018-03-23T03:00:19.572Z,3.60
2018-03-23T03:02:47.839Z,3.60
2018-03-23T03:05:15.340Z,3.60
2018-03-23T03:07:43.615Z,3.60
2018-03-23T03:10:11.091Z,3.60
2018-03-23T03:12:38.601Z,3.70
2018-03-23T03:15:06.084Z,3.70
2018-03-23T03:17:33.569Z,3.70
2018-03-23T03:20:01.069Z,3.80
2018-03-23T03:22:28.551Z,3.80
2018-03-23T03:24:56.820Z,3.70
2018-03-23T03:27:24.313Z,3.60
2018-03-23T03:29:52.588Z,3.70
2018-03-23T03:32:20.841Z,3.70
2018-03-23T03:34:48.344Z,3.70
2018-03-23T03:37:15.823Z,3.80
2018-03-23T03:39:44.091Z,3.60
2018-03-23T03:42:11.567Z,3.60
2018-03-23T03:44:39.071Z,3.70
2018-03-23T03:47:06.547Z,3.60
2018-03-23T03:49:34.022Z,3.70
2018-03-23T03:52:01.524Z,3.60
2018-03-23T03:54:29.007Z,3.60
2018-03-23T03:56:56.508Z,3.50
2018-03-23T03:59:24.759Z,3.60
2018-03-23T04:01:52.259Z,3.50
2018-03-23T04:04:20.518Z,3.60
2018-03-23T04:06:48.016Z,3.50
2018-03-23T04:09:16.263Z,3.50
2018-03-23T04:11:43.768Z,3.50
2018-03-23T04:14:11.248Z,3.50
2018-03-23T04:16:39.518Z,3.50
2018-03-23T04:19:07.008Z,3.50
2018-03-23T04:21:35.267Z,3.60
2018-03-23T04:24:02.756Z,3.50
2018-03-23T04:26:30.251Z,3.60
2018-03-23T04:28:57.739Z,3.60
2018-03-23T04:31:25.239Z,3.60
2018-03-23T04:33:52.719Z,3.60
2018-03-23T04:36:20.215Z,3.60
2018-03-23T04:38:48.460Z,3.60
2018-03-23T04:41:15.958Z,3.50
2018-03-23T04:43:43.444Z,3.60
2018-03-23T04:46:11.731Z,3.70
2018-03-23T04:48:39.983Z,3.60
2018-03-23T04:51:07.466Z,3.60
2018-03-23T04:53:34.968Z,3.70
2018-03-23T04:56:03.211Z,3.60
2018-03-23T04:58:30.707Z,3.60
2018-03-23T05:00:58.197Z,3.70
2018-03-23T05:03:26.470Z,3.70
2018-03-23T05:05:54.911Z,3.70
2018-03-23T05:08:22.415Z,3.70
2018-03-23T05:10:49.891Z,3.70
2018-03-23T05:13:17.406Z,3.70
2018-03-23T05:15:44.895Z,3.80
2018-03-23T05:18:12.400Z,3.70
2018-03-23T05:20:39.896Z,3.70
2018-03-23T05:23:07.411Z,3.70
2018-03-23T05:25:34.896Z,3.70
2018-03-23T05:28:02.378Z,3.70
2018-03-23T05:30:29.879Z,3.70
2018-03-23T05:32:58.126Z,3.80
2018-03-23T05:35:25.635Z,3.80
2018-03-23T05:37:53.137Z,3.80
2018-03-23T05:40:20.647Z,3.80
2018-03-23T05:42:48.131Z,3.90
2018-03-23T05:45:16.400Z,3.80
2018-03-23T05:47:43.890Z,3.70
2018-03-23T05:50:11.394Z,3.80
2018-03-23T05:52:38.884Z,3.80
2018-03-23T05:55:06.378Z,3.90
2018-03-23T05:57:33.865Z,3.80
2018-03-23T06:00:02.143Z,3.90
2018-03-23T06:02:29.637Z,3.80
2018-03-23T06:04:57.903Z,3.80
2018-03-23T06:07:25.488Z,3.80
2018-03-23T06:09:53.003Z,3.90
2018-03-23T06:12:20.484Z,3.90
2018-03-23T06:14:47.989Z,3.80
2018-03-23T06:17:15.849Z,3.80
2018-03-23T06:19:43.361Z,3.80
2018-03-23T06:22:11.627Z,3.90
2018-03-23T06:24:39.107Z,3.80
2018-03-23T06:27:07.371Z,3.90
2018-03-23T06:29:34.852Z,3.80
2018-03-23T06:32:02.356Z,3.90
2018-03-23T06:34:29.850Z,3.90
2018-03-23T06:36:57.349Z,3.90
2018-03-23T06:39:24.842Z,3.90
2018-03-23T06:41:52.356Z,3.90
2018-03-23T06:44:19.861Z,4.00
2018-03-23T06:46:47.363Z,4.00
2018-03-23T06:49:15.616Z,4.00
2018-03-23T06:51:43.115Z,4.00
2018-03-23T06:54:11.370Z,4.00
2018-03-23T06:56:38.879Z,4.00
2018-03-23T06:59:07.137Z,4.10
2018-03-23T07:01:34.825Z,4.00
2018-03-23T07:04:02.712Z,4.20
2018-03-23T07:06:31.079Z,4.20
2018-03-23T07:08:59.560Z,4.10
2018-03-23T07:11:27.075Z,4.00
2018-03-23T07:13:54.705Z,4.10
2018-03-23T07:16:23.073Z,4.10
2018-03-23T07:18:51.313Z,4.10
2018-03-23T07:21:18.801Z,4.00
2018-03-23T07:23:47.068Z,4.10
2018-03-23T07:26:14.561Z,4.00
2018-03-23T07:28:42.837Z,4.10
2018-03-23T07:31:11.184Z,4.20
2018-03-23T07:33:39.459Z,4.20
2018-03-23T07:36:06.939Z,4.10
2018-03-23T07:38:34.457Z,4.30
2018-03-23T07:41:02.719Z,4.30
2018-03-23T07:43:30.224Z,4.30
2018-03-23T07:45:58.475Z,4.40
2018-03-23T07:48:25.991Z,4.30
2018-03-23T07:50:53.489Z,4.40
2018-03-23T07:53:20.991Z,4.50
2018-03-23T07:55:48.483Z,4.50
2018-03-23T07:58:16.763Z,4.40
2018-03-23T08:00:44.253Z,4.40
2018-03-23T08:03:12.514Z,4.40
2018-03-23T08:05:39.996Z,4.30
2018-03-23T08:08:07.503Z,4.40
2018-03-23T08:10:34.984Z,4.40
2018-03-23T08:13:02.492Z,4.40
2018-03-23T08:15:29.987Z,4.40
2018-03-23T08:17:58.240Z,4.50
2018-03-23T08:20:25.742Z,4.40
2018-03-23T08:22:53.996Z,4.60
2018-03-23T08:25:21.499Z,4.60
2018-03-23T08:27:49.752Z,4.70
2018-03-23T08:30:17.310Z,4.60
2018-03-23T08:32:45.528Z,4.60
2018-03-23T08:35:13.037Z,4.60
2018-03-23T08:37:40.531Z,4.70
2018-03-23T08:40:08.032Z,4.80
2018-03-23T08:42:35.515Z,4.70
2018-03-23T08:45:03.021Z,4.80
2018-03-23T08:47:30.503Z,4.80
2018-03-23T08:49:58.000Z,4.80
2018-03-23T08:52:33.300Z,4.90
2018-03-23T08:55:01.564Z,4.90
2018-03-23T08:57:29.049Z,4.80
2018-03-23T08:59:57.319Z,4.90
2018-03-23T09:02:24.799Z,4.90
2018-03-23T09:04:52.302Z,4.90
2018-03-23T09:07:19.784Z,5.00
2018-03-23T09:09:47.283Z,5.00
2018-03-23T09:12:14.764Z,5.00
2018-03-23T09:14:42.253Z,5.10
2018-03-23T09:17:10.525Z,5.10
2018-03-23T09:19:38.027Z,5.00
2018-03-23T09:22:06.305Z,5.20
2018-03-23T09:24:34.551Z,5.30
2018-03-23T09:27:02.056Z,5.20
2018-03-23T09:29:29.545Z,5.40
2018-03-23T09:31:57.461Z,5.40
2018-03-23T09:34:24.975Z,5.50
2018-03-23T09:36:52.488Z,5.50
2018-03-23T09:39:20.001Z,5.50
2018-03-23T09:41:47.504Z,5.60
2018-03-23T09:44:19.319Z,5.60
2018-03-23T09:46:46.864Z,5.60
2018-03-23T09:49:14.352Z,5.70
2018-03-23T09:51:41.860Z,5.60
2018-03-23T09:54:09.345Z,5.50
2018-03-23T09:56:36.857Z,5.60
2018-03-23T09:59:04.339Z,5.70
2018-03-23T10:01:31.839Z,5.70
2018-03-23T10:03:59.362Z,5.80
2018-03-23T10:06:27.610Z,5.70
2018-03-23T10:08:55.088Z,5.60
2018-03-23T10:11:23.367Z,5.80
2018-03-23T10:13:58.562Z,5.70
2018-03-23T10:16:26.079Z,5.80
2018-03-23T10:18:53.563Z,5.80
2018-03-23T10:21:21.090Z,5.80
2018-03-23T10:23:48.580Z,5.80
2018-03-23T10:26:16.072Z,5.80
2018-03-23T10:28:43.575Z,5.80
2018-03-23T10:31:11.064Z,5.90
2018-03-23T10:33:39.329Z,6.00
2018-03-23T10:36:06.811Z,5.90
2018-03-23T10:38:34.317Z,6.10
2018-03-23T10:41:01.801Z,6.10
2018-03-23T10:43:29.307Z,6.20
2018-03-23T10:45:56.794Z,6.30
2018-03-23T10:48:24.299Z,6.20
2018-03-23T10:50:52.989Z,6.20
2018-03-23T10:53:21.312Z,6.00
2018-03-23T10:55:48.792Z,6.00
2018-03-23T10:58:17.055Z,6.10
2018-03-23T11:00:50.168Z,6.00
2018-03-23T11:03:17.683Z,6.20
2018-03-23T11:05:45.179Z,6.30
2018-03-23T11:08:12.679Z,6.30
2018-03-23T11:10:45.187Z,6.40
2018-03-23T11:13:13.468Z,6.50
2018-03-23T11:15:48.213Z,6.40
2018-03-23T11:18:16.500Z,6.50
2018-03-23T11:20:44.751Z,6.60
2018-03-23T11:23:12.236Z,6.60
2018-03-23T11:25:39.741Z,6.70
2018-03-23T11:28:07.231Z,6.80
2018-03-23T11:30:34.731Z,6.90
2018-03-23T11:33:02.216Z,6.90
2018-03-23T11:35:29.781Z,7.00
2018-03-23T11:37:57.265Z,7.10
2018-03-23T11:40:34.717Z,7.10
2018-03-23T11:43:02.969Z,7.40
2018-03-23T11:45:31.234Z,7.40
2018-03-23T11:47:58.716Z,7.30
2018-03-23T11:50:26.336Z,7.30
2018-03-23T11:52:53.819Z,7.40
2018-03-23T11:55:21.353Z,7.50
2018-03-23T11:57:48.834Z,7.60
2018-03-23T12:00:16.346Z,7.60
2018-03-23T12:02:43.838Z,7.60
2018-03-23T12:05:14.550Z,7.60
2018-03-23T12:07:42.044Z,7.40
2018-03-23T12:10:09.547Z,7.40
2018-03-23T12:12:37.808Z,7.40
2018-03-23T12:15:05.316Z,7.40
2018-03-23T12:17:32.796Z,7.50
2018-03-23T12:20:00.279Z,7.60
2018-03-23T12:22:28.552Z,7.50
2018-03-23T12:24:56.031Z,7.50
2018-03-23T12:27:23.541Z,7.60
2018-03-23T12:29:51.021Z,7.60
2018-03-23T12:32:18.522Z,7.60
2018-03-23T12:34:46.062Z,7.60
2018-03-23T12:37:13.531Z,7.60
2018-03-23T12:39:41.019Z,7.60
2018-03-23T12:42:09.289Z,7.60
2018-03-23T12:44:36.771Z,7.50
2018-03-23T12:47:04.272Z,7.50
2018-03-23T12:49:31.777Z,7.50
2018-03-23T12:51:59.284Z,7.50
2018-03-23T12:54:27.533Z,7.50
2018-03-23T12:56:55.035Z,7.50
2018-03-23T12:59:23.286Z,7.40
2018-03-23T13:01:50.795Z,7.40
2018-03-23T13:04:22.087Z,7.50
2018-03-23T13:06:49.585Z,7.40
2018-03-23T13:09:17.070Z,7.40
2018-03-23T13:11:44.589Z,7.40
2018-03-23T13:14:12.067Z,7.50
2018-03-23T13:16:39.551Z,7.50
2018-03-23T13:19:07.052Z,7.50
2018-03-23T13:21:34.527Z,7.50
2018-03-23T13:24:02.025Z,7.40
2018-03-23T13:26:29.499Z,7.40
2018-03-23T13:28:57.787Z,7.40
2018-03-23T13:31:26.039Z,7.30
2018-03-23T13:33:53.553Z,7.30
2018-03-23T13:36:21.052Z,7.30
2018-03-23T13:38:48.555Z,7.30
2018-03-23T13:41:16.042Z,7.30
2018-03-23T13:43:43.542Z,7.30
2018-03-23T13:46:11.038Z,7.40
2018-03-23T13:48:38.545Z,7.30
2018-03-23T13:51:06.032Z,7.30
2018-03-23T13:53:34.296Z,7.40
2018-03-23T13:56:01.781Z,7.40
2018-03-23T13:58:35.650Z,7.50
2018-03-23T14:01:03.140Z,7.50
2018-03-23T14:03:30.642Z,7.50
2018-03-23T14:05:58.887Z,7.50
2018-03-23T14:08:26.424Z,7.40
2018-03-23T14:10:53.903Z,7.60
2018-03-23T14:13:21.403Z,7.60
2018-03-23T14:15:48.911Z,7.60
2018-03-23T14:18:17.163Z,7.60
2018-03-23T14:20:44.668Z,7.50
2018-03-23T14:23:12.925Z,7.40
2018-03-23T14:25:40.435Z,7.40
2018-03-23T14:28:08.679Z,7.50
2018-03-23T14:30:36.183Z,7.40
2018-03-23T14:33:03.664Z,7.50
2018-03-23T14:35:31.937Z,7.50
2018-03-23T14:37:59.419Z,7.40
2018-03-23T14:40:27.704Z,7.50
2018-03-23T14:42:55.950Z,7.50
2018-03-23T14:45:23.826Z,7.50
2018-03-23T14:47:51.315Z,7.50
2018-03-23T14:50:18.811Z,7.40
2018-03-23T14:52:47.064Z,7.50
2018-03-23T14:55:14.567Z,7.40
2018-03-23T14:57:42.820Z,7.50
2018-03-23T15:00:10.340Z,7.40
2018-03-23T15:02:38.592Z,7.40
2018-03-23T15:05:06.079Z,7.30
2018-03-23T15:07:34.356Z,7.40
2018-03-23T15:10:01.894Z,7.30
2018-03-23T15:12:30.124Z,7.40
2018-03-23T15:14:57.616Z,7.30
2018-03-23T15:17:25.883Z,7.40
2018-03-23T15:19:53.375Z,7.40
2018-03-23T15:22:20.902Z,7.50
2018-03-23T15:24:48.389Z,7.40
2018-03-23T15:27:16.677Z,7.40
2018-03-23T15:29:44.159Z,7.30
2018-03-23T15:32:12.433Z,7.30
2018-03-23T15:34:39.911Z,7.20
2018-03-23T15:37:07.429Z,7.30
2018-03-23T15:39:34.926Z,7.20
2018-03-23T15:42:02.440Z,7.20
2018-03-23T15:44:30.693Z,7.10
2018-03-23T15:46:58.204Z,7.00
2018-03-23T15:49:25.686Z,7.10
2018-03-23T15:51:53.195Z,7.10
2018-03-23T15:54:20.726Z,7.10
2018-03-23T15:56:48.191Z,7.00
2018-03-23T15:59:15.685Z,7.00
2018-03-23T16:01:43.207Z,6.90
2018-03-23T16:04:11.457Z,6.90
2018-03-23T16:06:38.957Z,6.90
2018-03-23T16:09:06.471Z,6.90
2018-03-23T16:11:33.953Z,6.90
2018-03-23T16:14:01.460Z,6.90
2018-03-23T16:16:28.957Z,6.90
2018-03-23T16:18:57.245Z,6.90
2018-03-23T16:21:24.747Z,6.90
2018-03-23T16:23:56.244Z,6.90
2018-03-23T16:26:23.774Z,6.90
2018-03-23T16:28:52.105Z,6.90
2018-03-23T16:31:19.714Z,6.90
2018-03-23T16:33:48.067Z,6.90
2018-03-23T16:36:15.562Z,6.90
2018-03-23T16:38:43.067Z,7.00
2018-03-23T16:41:10.675Z,7.00
2018-03-23T16:43:39.030Z,7.00
2018-03-23T16:46:06.647Z,6.90
2018-03-23T16:48:34.152Z,7.00
2018-03-23T16:51:02.425Z,6.90
2018-03-23T16:53:29.982Z,6.90
2018-03-23T16:55:57.486Z,7.00
2018-03-23T16:58:25.737Z,7.00
2018-03-23T17:00:53.247Z,7.00
2018-03-23T17:03:21.887Z,7.00
2018-03-23T17:05:49.400Z,7.00
2018-03-23T17:08:17.655Z,7.10
2018-03-23T17:10:45.165Z,7.00
2018-03-23T17:13:13.414Z,7.10
2018-03-23T17:15:40.914Z,7.00
2018-03-23T17:18:09.168Z,7.20
2018-03-23T17:20:36.671Z,7.10
2018-03-23T17:23:04.168Z,7.10
2018-03-23T17:25:31.679Z,7.10
2018-03-23T17:27:59.158Z,7.10
2018-03-23T17:30:26.674Z,7.10
2018-03-23T17:32:54.165Z,7.10
2018-03-23T17:35:21.669Z,7.00
2018-03-23T17:37:49.153Z,7.00
2018-03-23T17:40:16.650Z,7.00
2018-03-23T17:42:44.905Z,7.00
2018-03-23T17:45:12.407Z,6.90
2018-03-23T17:47:40.663Z,6.90
2018-03-23T17:50:08.175Z,6.90
2018-03-23T17:52:35.686Z,6.90
2018-03-23T17:55:07.674Z,6.90
2018-03-23T17:57:35.167Z,6.90
2018-03-23T18:00:03.431Z,6.90
2018-03-23T18:02:30.942Z,6.90
2018-03-23T18:04:59.207Z,6.80
2018-03-23T18:07:26.717Z,6.70
2018-03-23T18:09:54.250Z,6.70
2018-03-23T18:12:21.759Z,6.70
2018-03-23T18:14:49.246Z,6.70
2018-03-23T18:17:16.754Z,6.70
2018-03-23T18:19:44.247Z,6.70
2018-03-23T18:22:12.519Z,6.70
2018-03-23T18:24:40.017Z,6.70
2018-03-23T18:27:07.530Z,6.70
2018-03-23T18:29:35.024Z,6.80
2018-03-23T18:32:02.563Z,6.80
2018-03-23T18:34:30.048Z,6.80
2018-03-23T18:36:57.559Z,6.90
2018-03-23T18:39:25.824Z,6.80
2018-03-23T18:41:53.363Z,6.80
2018-03-23T18:44:20.864Z,6.90
2018-03-23T18:46:48.378Z,6.90
2018-03-23T18:49:15.862Z,6.90
2018-03-23T18:51:43.339Z,6.80
2018-03-23T18:54:12.783Z,6.90
2018-03-23T18:56:40.273Z,6.90
2018-03-23T18:59:08.543Z,6.80
2018-03-23T19:01:36.037Z,6.70
2018-03-23T19:04:03.547Z,6.80
2018-03-23T19:06:31.051Z,6.70
2018-03-23T19:08:58.574Z,6.70
2018-03-23T19:11:26.071Z,6.70
2018-03-23T19:13:53.613Z,6.70
2018-03-23T19:16:21.109Z,6.70
2018-03-23T19:18:48.631Z,6.60
2018-03-23T19:21:16.895Z,6.70
2018-03-23T19:23:44.403Z,6.60
2018-03-23T19:26:11.909Z,6.70
2018-03-23T19:28:39.413Z,6.70
2018-03-23T19:31:06.900Z,6.70
2018-03-23T19:33:35.164Z,6.70
2018-03-23T19:36:02.653Z,6.60
2018-03-23T19:38:30.175Z,6.70
2018-03-23T19:40:58.432Z,6.70
2018-03-23T19:43:25.973Z,6.60
2018-03-23T19:45:53.460Z,6.70
2018-03-23T19:48:21.734Z,6.70
2018-03-23T19:50:50.033Z,6.70
2018-03-23T19:53:18.287Z,6.70
2018-03-23T19:55:45.795Z,6.70
2018-03-23T19:58:14.042Z,6.70
2018-03-23T20:00:41.554Z,6.60
2018-03-23T20:03:09.804Z,6.70
2018-03-23T20:05:37.306Z,6.70
2018-03-23T20:08:04.794Z,6.70
2018-03-23T20:10:32.302Z,6.70
2018-03-23T20:12:59.813Z,6.70
2018-03-23T20:15:28.102Z,6.80
2018-03-23T20:18:01.319Z,6.70
2018-03-23T20:20:35.188Z,6.90
2018-03-23T20:23:02.679Z,6.80
2018-03-23T20:25:30.182Z,6.80
2018-03-23T20:28:04.141Z,6.70
2018-03-23T20:30:31.644Z,6.70
2018-03-23T20:33:00.164Z,6.80
2018-03-23T20:35:27.904Z,6.80
2018-03-23T20:37:55.444Z,6.80
2018-03-23T20:40:22.976Z,6.80
2018-03-23T20:42:50.458Z,6.70
2018-03-23T20:45:18.846Z,6.70
2018-03-23T20:47:46.465Z,6.70
2018-03-23T20:50:14.168Z,6.70
2018-03-23T20:52:41.685Z,6.70
2018-03-23T20:55:09.168Z,6.70
2018-03-23T20:57:36.667Z,6.70
2018-03-23T21:00:04.144Z,6.70
2018-03-23T21:02:31.649Z,6.60
2018-03-23T21:05:10.593Z,6.80
2018-03-23T21:07:38.858Z,6.80
2018-03-23T21:10:06.368Z,6.80
2018-03-23T21:12:33.875Z,6.80
2018-03-23T21:15:01.410Z,6.80
2018-03-23T21:17:28.944Z,6.70
2018-03-23T21:19:56.392Z,6.60
2018-03-23T21:22:23.913Z,6.60
2018-03-23T21:24:51.413Z,6.60
2018-03-23T21:27:18.923Z,6.50
2018-03-23T21:29:46.408Z,6.50
2018-03-23T21:32:14.675Z,6.60
2018-03-23T21:34:42.148Z,6.50
2018-03-23T21:37:09.670Z,6.70
2018-03-23T21:39:37.929Z,6.50
2018-03-23T21:42:06.189Z,6.50
2018-03-23T21:44:33.691Z,6.40
2018-03-23T21:47:01.183Z,6.40
2018-03-23T21:49:29.464Z,6.40
2018-03-23T21:51:56.955Z,6.40
2018-03-23T21:54:24.463Z,6.50
2018-03-23T21:56:51.939Z,6.60
2018-03-23T21:59:19.445Z,6.70
2018-03-23T22:01:46.941Z,6.70
2018-03-23T22:04:14.472Z,6.80
2018-03-23T22:06:41.960Z,6.80
2018-03-23T22:09:09.458Z,6.80
2018-03-23T22:11:36.941Z,6.80
2018-03-23T22:14:04.448Z,6.80
2018-03-23T22:16:32.709Z,6.60
2018-03-23T22:19:00.288Z,6.60
2018-03-23T22:21:28.552Z,6.60
2018-03-23T22:23:56.078Z,6.50
2018-03-23T22:26:23.581Z,6.80
2018-03-23T22:28:51.094Z,6.90
2018-03-23T22:31:19.351Z,6.80
2018-03-23T22:33:46.863Z,6.70
2018-03-23T22:36:15.172Z,6.70
2018-03-23T22:38:42.651Z,6.70
2018-03-23T22:41:10.151Z,6.80
2018-03-23T22:43:37.627Z,6.70
2018-03-23T22:46:05.132Z,6.70
2018-03-23T22:48:33.390Z,6.70
2018-03-23T22:51:00.900Z,6.70
2018-03-23T22:53:29.152Z,6.70
2018-03-23T22:55:56.660Z,6.70
2018-03-23T22:58:24.145Z,6.60
2018-03-23T23:00:51.656Z,6.60
2018-03-23T23:03:19.156Z,6.60
2018-03-23T23:05:47.426Z,6.50
2018-03-23T23:08:14.929Z,6.50
2018-03-23T23:10:42.449Z,6.60
2018-03-23T23:13:09.942Z,6.60
2018-03-23T23:15:37.456Z,6.60
2018-03-23T23:18:04.948Z,6.50
2018-03-23T23:20:32.463Z,6.50
2018-03-23T23:22:59.949Z,6.50
2018-03-23T23:25:28.230Z,6.50
2018-03-23T23:27:56.488Z,6.50
2018-03-23T23:30:23.994Z,6.50
2018-03-23T23:32:52.267Z,6.40
2018-03-23T23:35:20.515Z,6.40
2018-03-23T23:37:48.020Z,6.30
2018-03-23T23:40:15.497Z,6.20
2018-03-23T23:42:43.001Z,6.20
2018-03-23T23:45:10.484Z,6.10
2018-03-23T23:47:37.999Z,6.00
2018-03-23T23:50:05.493Z,6.00
2018-03-23T23:52:33.776Z,5.90
2018-03-23T23:55:02.027Z,5.90
2018-03-23T23:57:29.536Z,5.80
2018-03-23T23:59:57.788Z,5.70
